Time;durP1;ratioP1;P1;durP2;ratioP2;P2;SDS_P1;SDS_P2;PMS_P1;PMS_P2;Temp;Humidity;BMP_temperature;BMP_pressure;BME280_temperature;BME280_humidity;BME280_pressure;Samples;Min_cycle;Max_cycle;Signal;HPM_P1;HPM_P2
2022/08/23 00:01:21;;;;;;;76.97;73.78;;;;;;;17.73;94.89;101491.47;5075656;28;20127;-72
2022/08/23 00:03:48;;;;;;;69.97;67.28;;;;;;;17.68;94.29;101495.50;5081222;28;20476;-73
2022/08/23 00:06:14;;;;;;;78.30;75.03;;;;;;;17.67;93.54;101491.16;5081237;28;20116;-72
2022/08/23 00:08:40;;;;;;;72.68;69.80;;;;;;;17.55;93.80;101476.59;5079826;28;20455;-72
2022/08/23 00:11:22;;;;;;;83.05;79.68;;;;;;;17.61;95.10;101483.88;5080021;28;20028;-72
2022/08/23 00:13:47;;;;;;;77.38;74.20;;;;;;;17.57;95.24;101492.41;5075754;28;20078;-72
2022/08/23 00:16:12;;;;;;;74.97;71.95;;;;;;;17.55;95.13;101479.28;5076996;28;20024;-73
2022/08/23 00:18:38;;;;;;;80.93;77.78;;;;;;;17.51;95.38;101485.13;5080620;28;20083;-72
2022/08/23 00:21:03;;;;;;;79.30;75.80;;;;;;;17.36;96.39;101459.25;5079191;28;20024;-73
2022/08/23 00:23:28;;;;;;;74.18;70.80;;;;;;;17.46;96.31;101475.84;5073678;28;20043;-73
2022/08/23 00:25:54;;;;;;;80.55;77.40;;;;;;;17.44;96.75;101485.00;5080282;28;20032;-73
2022/08/23 00:28:19;;;;;;;78.30;74.88;;;;;;;17.43;95.29;101491.38;5079332;28;20032;-72
2022/08/23 00:30:44;;;;;;;77.20;74.15;;;;;;;17.37;94.94;101478.75;5077283;28;20503;-72
2022/08/23 00:33:10;;;;;;;74.50;71.22;;;;;;;17.36;94.97;101482.44;5078995;28;20039;-72
2022/08/23 00:35:35;;;;;;;79.40;76.22;;;;;;;17.34;95.27;101479.13;5083166;28;20047;-72
2022/08/23 00:38:01;;;;;;;72.70;69.85;;;;;;;17.28;94.60;101478.81;5059589;28;20092;-72
2022/08/23 00:40:26;;;;;;;71.50;68.60;;;;;;;17.29;95.39;101479.66;5063461;28;20077;-72
2022/08/23 00:49:06;;;;;;;77.50;74.18;;;;;;;17.18;96.71;101467.56;5077023;28;20496;-73
2022/08/23 00:51:40;;;;;;;86.88;83.35;;;;;;;17.03;99.06;101443.50;5072380;28;20028;-72
2022/08/23 00:54:08;;;;;;;82.68;79.28;;;;;;;17.09;100.00;101470.47;5075495;28;20025;-72
2022/08/23 00:56:35;;;;;;;91.63;87.63;;;;;;;17.05;100.00;101468.16;5079667;28;20406;-72
2022/08/23 00:59:01;;;;;;;98.43;94.35;;;;;;;16.99;100.00;101460.88;5073155;28;20025;-72
2022/08/23 01:01:27;;;;;;;93.30;89.60;;;;;;;16.98;100.00;101464.53;5076893;28;20036;-72
2022/08/23 01:03:56;;;;;;;99.07;94.93;;;;;;;16.91;100.00;101462.75;5072715;28;20029;-72
2022/08/23 01:06:27;;;;;;;98.75;94.82;;;;;;;16.87;100.00;101470.25;5076227;28;20024;-72
2022/08/23 01:08:58;;;;;;;103.93;99.63;;;;;;;16.80;100.00;101462.16;5074568;28;20067;-72
2022/08/23 01:11:31;;;;;;;;;;;;;;;16.87;100.00;101470.25;5076710;28;20063;-72
2022/08/23 01:14:09;;;;;;;85.90;82.40;;;;;;;16.81;100.00;101453.16;5075550;28;19920;-73
2022/08/23 01:16:48;;;;;;;102.90;98.60;;;;;;;16.91;100.00;101465.41;5074704;28;20059;-73
2022/08/23 01:19:36;;;;;;;102.78;98.63;;;;;;;16.90;100.00;101466.41;5077912;28;20551;-73
2022/08/23 01:22:10;;;;;;;104.22;100.03;;;;;;;16.82;100.00;101462.81;5071273;28;20082;-72
2022/08/23 01:24:37;;;;;;;115.75;110.88;;;;;;;16.83;100.00;101472.47;5077941;28;20020;-72
2022/08/23 01:27:03;;;;;;;120.13;115.20;;;;;;;16.76;99.34;101471.47;5075045;28;20060;-72
2022/08/23 01:29:29;;;;;;;121.35;116.47;;;;;;;16.74;99.60;101470.81;5076768;28;20387;-73
2022/08/23 01:31:55;;;;;;;120.78;116.00;;;;;;;16.71;100.00;101468.50;5077557;28;20027;-73
2022/08/23 01:34:25;;;;;;;114.00;109.30;;;;;;;16.67;98.61;101469.84;5076256;28;20032;-73
2022/08/23 01:36:52;;;;;;;98.50;94.60;;;;;;;16.65;97.91;101466.53;5076016;28;20040;-73
2022/08/23 01:39:18;;;;;;;95.47;91.78;;;;;;;16.68;97.19;101466.19;5076086;28;20099;-73
2022/08/23 01:41:43;;;;;;;98.00;94.00;;;;;;;16.71;98.50;101467.69;5068183;28;20135;-73
2022/08/23 01:44:09;;;;;;;110.50;106.03;;;;;;;16.69;100.00;101475.84;5078511;28;20517;-73
2022/08/23 01:46:35;;;;;;;114.75;110.10;;;;;;;16.64;100.00;101473.69;5077993;28;20054;-73
2022/08/23 01:49:02;;;;;;;118.20;113.50;;;;;;;16.55;100.00;101461.44;5075854;28;20046;-73
2022/08/23 01:51:28;;;;;;;123.20;118.18;;;;;;;16.56;100.00;101462.25;5074933;28;20063;-72
2022/08/23 01:53:54;;;;;;;119.90;114.65;;;;;;;16.56;100.00;101468.41;5075636;28;20033;-72
2022/08/23 01:56:20;;;;;;;112.68;107.97;;;;;;;16.58;100.00;101469.06;5072649;28;20083;-72
2022/08/23 01:58:47;;;;;;;120.20;115.30;;;;;;;16.57;99.91;101469.22;5079138;28;20008;-72
2022/08/23 02:01:12;;;;;;;116.43;111.75;;;;;;;16.59;100.00;101462.75;5076121;28;20070;-72
2022/08/23 02:03:37;;;;;;;118.03;113.38;;;;;;;16.59;100.00;101472.56;5074912;28;20032;-72
2022/08/23 02:06:03;;;;;;;117.43;112.88;;;;;;;16.57;100.00;101469.22;5079939;28;20035;-73
2022/08/23 02:11:16;;;;;;;110.07;105.75;;;;;;;16.52;100.00;101466.28;5073968;28;20070;-72
2022/08/23 02:13:43;;;;;;;124.60;119.72;;;;;;;16.43;100.00;101460.16;5082176;28;20050;-73
2022/08/23 02:16:09;;;;;;;111.68;107.28;;;;;;;16.61;100.00;101470.53;5064636;28;20035;-72
2022/08/23 02:18:36;;;;;;;105.40;100.82;;;;;;;16.60;100.00;101468.91;5081814;28;20029;-72
2022/08/23 02:21:01;;;;;;;103.00;98.88;;;;;;;16.56;100.00;101464.91;5081909;28;20024;-72
2022/08/23 02:23:27;;;;;;;100.60;96.63;;;;;;;16.56;100.00;101463.06;5074397;28;20100;-73
2022/08/23 02:25:53;;;;;;;92.53;88.70;;;;;;;16.60;100.00;101468.91;5078809;28;20020;-73
2022/08/23 02:28:21;;;;;;;103.63;99.25;;;;;;;16.60;100.00;101474.22;5078308;28;20048;-73
2022/08/23 02:30:48;;;;;;;105.47;101.30;;;;;;;16.57;100.00;101470.09;5079764;28;20024;-72
2022/08/23 02:33:13;;;;;;;112.40;108.05;;;;;;;16.50;100.00;101468.28;5081444;28;20023;-73
2022/08/23 02:35:40;;;;;;;127.03;121.75;;;;;;;16.43;100.00;101465.47;5082495;28;20074;-73
2022/08/23 02:38:07;;;;;;;133.60;128.23;;;;;;;16.39;100.00;101466.81;5078796;28;20044;-72
2022/08/23 02:40:33;;;;;;;128.13;122.88;;;;;;;16.39;100.00;101470.31;5078478;28;20078;-72
2022/08/23 02:42:58;;;;;;;117.85;113.30;;;;;;;16.37;99.21;101471.50;5079861;28;20032;-72
2022/08/23 02:45:25;;;;;;;99.40;95.55;;;;;;;16.33;97.74;101468.38;5073345;28;20033;-73
2022/08/23 02:47:51;;;;;;;85.72;82.38;;;;;;;16.24;96.91;101462.25;5064271;28;20082;-73
2022/08/23 02:50:17;;;;;;;79.97;76.72;;;;;;;16.25;96.17;101468.38;5078228;28;20416;-73
2022/08/23 02:52:43;;;;;;;72.40;69.40;;;;;;;16.23;95.38;101467.72;5078991;28;20016;-72
2022/08/23 02:55:09;;;;;;;70.88;68.10;;;;;;;16.21;95.69;101465.22;5079768;28;20035;-73
2022/08/23 02:57:34;;;;;;;64.57;62.03;;;;;;;16.18;95.71;101457.59;5075708;28;20483;-73
2022/08/23 03:00:00;;;;;;;70.80;68.03;;;;;;;16.14;97.50;101464.25;5077564;28;20037;-73
2022/08/23 03:02:25;;;;;;;66.32;63.75;;;;;;;16.11;97.88;101463.75;5076256;28;20481;-73
2022/08/23 03:04:51;;;;;;;67.82;65.20;;;;;;;16.07;99.22;101467.75;5078175;28;20467;-72
2022/08/23 03:07:17;;;;;;;82.85;79.30;;;;;;;16.06;100.00;101466.94;5080085;28;20028;-72
2022/08/23 03:09:42;;;;;;;92.30;88.68;;;;;;;16.05;100.00;101473.28;5080649;28;20024;-72
2022/08/23 03:12:09;;;;;;;97.15;93.28;;;;;;;16.01;100.00;101469.28;5080878;28;20480;-73
2022/08/23 03:14:36;;;;;;;101.15;97.18;;;;;;;16.06;100.00;101466.94;5078010;28;20074;-73
2022/08/23 03:17:02;;;;;;;70.80;67.72;;;;;;;16.06;100.00;101471.44;5079317;28;20020;-73
2022/08/23 03:19:28;;;;;;;78.72;75.57;;;;;;;16.04;100.00;101472.44;5075682;28;20109;-72
2022/08/23 03:21:53;;;;;;;72.88;69.93;;;;;;;16.02;100.00;101466.44;5077431;28;20122;-73
2022/08/23 03:24:18;;;;;;;78.82;75.60;;;;;;;15.99;100.00;101477.44;5074392;28;20036;-73
2022/08/23 03:26:44;;;;;;;64.13;61.55;;;;;;;15.95;100.00;101468.13;5078696;28;20392;-73
2022/08/23 03:29:10;;;;;;;66.07;63.50;;;;;;;15.91;99.33;101455.34;5077916;28;20036;-72
2022/08/23 03:31:36;;;;;;;65.25;62.55;;;;;;;15.94;98.66;101455.84;5076926;28;20024;-72
2022/08/23 03:34:03;;;;;;;62.85;60.17;;;;;;;15.94;98.58;101458.50;5078204;28;20027;-73
2022/08/23 03:36:28;;;;;;;61.72;59.13;;;;;;;15.95;99.83;101454.00;5074363;28;20052;-73
2022/08/23 03:38:55;;;;;;;67.53;64.57;;;;;;;15.94;100.00;101458.50;5076620;28;20022;-73
2022/08/23 03:41:21;;;;;;;71.28;68.20;;;;;;;15.91;100.00;101453.50;5078738;28;20032;-72
2022/08/23 03:43:46;;;;;;;79.82;76.28;;;;;;;15.94;100.00;101461.16;5079464;28;20036;-72
2022/08/23 03:46:22;;;;;;;67.18;64.38;;;;;;;15.88;100.00;101464.50;5080109;28;20024;-73
2022/08/23 03:48:54;;;;;;;72.65;69.70;;;;;;;15.89;100.00;101466.16;5078016;28;20031;-73
2022/08/23 03:51:21;;;;;;;99.47;95.47;;;;;;;15.90;100.00;101467.00;5078717;28;20017;-73
2022/08/23 03:53:48;;;;;;;101.30;97.25;;;;;;;15.92;100.00;101476.47;5077682;28;20103;-73
2022/08/23 03:56:34;;;;;;;91.97;88.10;;;;;;;15.93;100.00;101472.78;5082356;28;20077;-73
2022/08/23 03:59:04;;;;;;;85.38;81.68;;;;;;;15.95;100.00;101476.13;5079050;28;20046;-73
2022/08/23 04:01:29;;;;;;;92.57;88.80;;;;;;;15.93;100.00;101483.44;5076890;28;20606;-73
2022/08/23 04:03:58;;;;;;;100.70;96.68;;;;;;;15.88;100.00;101475.16;5075059;28;20024;-73
2022/08/23 04:06:24;;;;;;;101.82;97.38;;;;;;;15.91;100.00;101479.28;5076526;28;20020;-73
2022/08/23 04:08:50;;;;;;;72.53;69.05;;;;;;;15.88;100.00;101480.47;5078012;28;20078;-73
2022/08/23 04:11:15;;;;;;;75.85;72.45;;;;;;;15.88;100.00;101479.66;5078270;28;20036;-73
2022/08/23 04:13:42;;;;;;;76.85;73.47;;;;;;;15.90;100.00;101480.31;5046759;28;20028;-73
2022/08/23 04:16:08;;;;;;;73.70;70.38;;;;;;;15.88;100.00;101480.47;5074153;28;20037;-73
2022/08/23 04:18:35;;;;;;;67.05;64.00;;;;;;;15.87;100.00;101475.31;5079732;28;20101;-73
2022/08/23 04:21:06;;;;;;;81.30;77.57;;;;;;;15.90;100.00;101489.13;5076662;28;20357;-73
2022/08/23 04:23:31;;;;;;;74.63;70.85;;;;;;;15.89;100.00;101489.28;5073822;28;20028;-73
2022/08/23 04:25:56;;;;;;;80.43;76.75;;;;;;;15.81;100.00;101479.50;5079614;28;20427;-73
2022/08/23 04:28:22;;;;;;;84.63;80.93;;;;;;;15.80;100.00;101483.13;5075359;28;20062;-73
2022/08/23 04:30:50;;;;;;;93.78;89.55;;;;;;;15.75;100.00;101482.81;5077068;28;20074;-71
2022/08/23 04:33:17;;;;;;;97.00;92.88;;;;;;;15.74;100.00;101495.31;5076870;28;20527;-71
2022/08/23 04:35:42;;;;;;;98.55;94.03;;;;;;;15.72;100.00;101496.44;5075767;28;20024;-71
2022/08/23 04:38:08;;;;;;;95.38;90.97;;;;;;;15.71;100.00;101500.94;5074656;28;20528;-71
2022/08/23 04:43:18;;;;;;;86.10;82.43;;;;;;;15.60;100.00;101488.78;5075619;28;20051;-71
2022/08/23 04:45:43;;;;;;;96.00;91.57;;;;;;;15.73;100.00;101514.91;5078018;28;20028;-72
2022/08/23 04:48:09;;;;;;;93.85;89.88;;;;;;;15.76;100.00;101513.75;5059726;28;20021;-71
2022/08/23 04:50:35;;;;;;;95.50;91.22;;;;;;;15.78;100.00;101509.09;5074704;28;20024;-71
2022/08/23 04:53:01;;;;;;;95.32;90.80;;;;;;;15.77;100.00;101502.13;5078233;28;20318;-71
2022/08/23 04:55:27;;;;;;;96.38;91.75;;;;;;;15.82;100.00;101507.75;5068229;28;20074;-71
2022/08/23 04:57:53;;;;;;;100.60;96.05;;;;;;;15.85;100.00;101502.09;5073343;28;20020;-71
2022/08/23 05:00:19;;;;;;;95.28;90.68;;;;;;;15.88;100.00;101499.09;5056345;28;20480;-71
2022/08/23 05:02:45;;;;;;;90.28;86.28;;;;;;;15.96;100.00;101509.75;5074527;28;20350;-71
2022/08/23 05:05:11;;;;;;;91.53;87.22;;;;;;;15.94;100.00;101503.75;5067576;28;20469;-70
2022/08/23 05:07:38;;;;;;;94.85;90.50;;;;;;;16.06;100.00;101512.22;5070756;28;20151;-71
2022/08/23 05:10:05;;;;;;;84.75;81.03;;;;;;;16.11;100.00;101512.50;5075585;28;20045;-70
2022/08/23 05:12:31;;;;;;;89.38;85.13;;;;;;;15.99;100.00;101489.94;5074287;28;20030;-70
2022/08/23 05:14:56;;;;;;;84.90;81.03;;;;;;;16.06;100.00;101498.91;5075992;28;20108;-70
2022/08/23 05:17:21;;;;;;;83.05;79.25;;;;;;;16.16;100.00;101510.19;5070237;28;20439;-71
2022/08/23 05:19:47;;;;;;;86.88;82.82;;;;;;;16.20;100.00;101516.00;5073901;28;20008;-69
2022/08/23 05:22:12;;;;;;;81.20;77.43;;;;;;;16.19;100.00;101511.69;5076092;28;20399;-70
2022/08/23 05:24:38;;;;;;;83.22;79.53;;;;;;;16.24;100.00;101506.66;5070495;28;20259;-69
2022/08/23 05:27:03;;;;;;;88.90;84.78;;;;;;;16.38;100.00;101519.28;5071802;28;20040;-70
2022/08/23 05:29:28;;;;;;;86.20;81.97;;;;;;;16.39;100.00;101522.78;5072903;28;20020;-70
2022/08/23 05:31:55;;;;;;;82.40;78.50;;;;;;;16.41;100.00;101521.59;5070722;28;20709;-70
2022/08/23 05:34:21;;;;;;;78.30;74.63;;;;;;;16.47;100.00;101527.25;5056185;28;20028;-71
2022/08/23 05:36:47;;;;;;;79.15;75.78;;;;;;;16.47;100.00;101519.25;5057699;28;20052;-70
2022/08/23 05:39:14;;;;;;;81.68;77.78;;;;;;;16.54;100.00;101536.22;5077168;28;20039;-70
2022/08/23 05:41:40;;;;;;;85.47;80.97;;;;;;;16.55;100.00;101530.72;5070114;28;20102;-70
2022/08/23 05:44:07;;;;;;;89.10;84.97;;;;;;;16.59;100.00;101531.19;5069722;28;20460;-70
2022/08/23 05:46:32;;;;;;;81.20;76.75;;;;;;;16.54;100.00;101522.88;5070546;28;20024;-70
2022/08/23 05:48:58;;;;;;;82.22;78.40;;;;;;;16.68;100.00;101543.50;5052704;28;20021;-70
2022/08/23 05:51:27;;;;;;;80.93;77.30;;;;;;;16.73;100.00;101543.78;5075261;28;20073;-70
2022/08/23 05:53:56;;;;;;;80.32;76.50;;;;;;;16.85;100.00;101538.91;5074378;28;20389;-70
2022/08/23 05:56:26;;;;;;;78.25;74.65;;;;;;;16.96;100.00;101548.38;5071720;28;20024;-70
2022/08/23 05:58:54;;;;;;;83.17;79.37;;;;;;;16.96;100.00;101543.03;5070063;28;20388;-70
2022/08/23 06:01:21;;;;;;;75.38;71.85;;;;;;;16.93;100.00;101532.72;5069332;28;20095;-70
2022/08/23 06:03:47;;;;;;;71.40;68.00;;;;;;;17.03;100.00;101549.34;5070132;28;20439;-70
2022/08/23 06:06:14;;;;;;;74.13;70.65;;;;;;;17.05;100.00;101553.50;5072635;28;20029;-70
2022/08/23 06:08:41;;;;;;;75.10;71.47;;;;;;;17.06;100.00;101557.00;5068803;28;20059;-70
2022/08/23 06:11:10;;;;;;;74.90;71.20;;;;;;;17.11;100.00;101562.63;5069275;28;20052;-70
2022/08/23 06:13:45;;;;;;;72.90;69.65;;;;;;;17.13;100.00;101562.44;5071560;28;20386;-70
2022/08/23 06:16:13;;;;;;;73.65;69.80;;;;;;;17.16;100.00;101560.28;5071849;28;20078;-70
2022/08/23 06:18:38;;;;;;;74.75;71.00;;;;;;;17.20;100.00;101561.59;5073896;28;20554;-70
2022/08/23 06:21:10;;;;;;;76.25;72.57;;;;;;;17.28;100.00;101558.00;5072161;28;20032;-70
2022/08/23 06:23:36;;;;;;;71.93;68.63;;;;;;;17.36;100.00;101559.81;5069946;28;20055;-70
2022/08/23 06:26:10;;;;;;;79.38;75.47;;;;;;;17.42;100.00;101559.09;5067753;28;20070;-70
2022/08/23 06:28:35;;;;;;;74.88;71.47;;;;;;;17.42;100.00;101556.41;5071307;28;20031;-70
2022/08/23 06:31:00;;;;;;;70.57;67.00;;;;;;;17.51;100.00;101557.19;5070169;28;20032;-70
2022/08/23 06:33:26;;;;;;;74.57;71.07;;;;;;;17.61;100.00;101552.44;5067698;28;20563;-70
2022/08/23 06:36:05;;;;;;;72.82;69.28;;;;;;;17.76;100.00;101544.47;5052408;28;20079;-70
2022/08/23 06:38:31;;;;;;;75.28;71.72;;;;;;;18.04;100.00;101550.91;5070244;28;20072;-71
2022/08/23 06:41:06;;;;;;;72.70;69.35;;;;;;;18.24;100.00;101548.53;5071636;28;20027;-71
2022/08/23 06:43:32;;;;;;;73.32;69.75;;;;;;;18.36;100.00;101551.59;5068948;28;20020;-71
2022/08/23 06:46:09;;;;;;;70.30;66.93;;;;;;;18.58;100.00;101543.66;5067249;28;20028;-71
2022/08/23 06:48:35;;;;;;;76.25;72.35;;;;;;;18.74;100.00;101554.16;5064940;28;20147;-70
2022/08/23 06:51:00;;;;;;;77.55;74.25;;;;;;;18.84;98.81;101554.72;5069636;28;20108;-71
2022/08/23 06:53:26;;;;;;;79.30;75.68;;;;;;;18.90;98.28;101553.97;5070965;28;20028;-71
2022/08/23 06:55:52;;;;;;;70.95;67.68;;;;;;;18.99;97.52;101549.34;5075076;28;20032;-70
2022/08/23 06:58:18;;;;;;;76.13;72.50;;;;;;;19.19;97.00;101548.72;5072731;28;20091;-71
2022/08/23 07:00:43;;;;;;;74.18;70.57;;;;;;;19.46;96.42;101552.50;5070081;28;20021;-71
2022/08/23 07:03:08;;;;;;;90.70;86.70;;;;;;;19.89;94.55;101555.97;5078199;28;20028;-71
2022/08/23 07:05:34;;;;;;;109.97;105.18;;;;;;;20.44;91.08;101552.63;5077053;28;20055;-70
2022/08/23 07:07:59;;;;;;;87.63;83.70;;;;;;;21.04;88.26;101552.91;5077897;28;20492;-70
2022/08/23 07:10:24;;;;;;;62.88;59.78;;;;;;;21.38;85.20;101554.63;5072528;28;20071;-72
2022/08/23 07:12:50;;;;;;;54.15;51.72;;;;;;;21.85;83.19;101568.13;5077039;28;20408;-72
2022/08/23 07:15:15;;;;;;;48.30;46.10;;;;;;;22.09;81.41;101567.47;5057707;28;20041;-72
2022/08/23 07:17:41;;;;;;;47.85;45.75;;;;;;;22.33;81.05;101570.56;5078229;28;20527;-72
2022/08/23 07:20:06;;;;;;;51.58;49.40;;;;;;;22.91;81.26;101567.88;5077574;28;20051;-70
2022/08/23 07:22:32;;;;;;;52.72;50.45;;;;;;;23.57;77.91;101576.63;5072293;28;20032;-71
2022/08/23 07:24:57;;;;;;;52.08;49.67;;;;;;;23.92;77.22;101550.03;5075577;28;20024;-70
2022/08/23 07:27:22;;;;;;;38.03;36.22;;;;;;;24.59;71.06;101574.47;5074684;28;20096;-70
2022/08/23 07:29:48;;;;;;;34.03;32.30;;;;;;;24.71;70.88;101571.00;5078537;28;20033;-71
2022/08/23 07:32:13;;;;;;;39.20;37.40;;;;;;;24.85;70.21;101559.00;5078356;28;20627;-71
2022/08/23 07:34:39;;;;;;;29.38;28.08;;;;;;;25.47;68.19;101574.13;5074799;28;20106;-71
2022/08/23 07:37:05;;;;;;;31.10;29.35;;;;;;;25.24;67.81;101573.84;5073676;28;20048;-71
2022/08/23 07:39:30;;;;;;;34.38;32.75;;;;;;;25.39;68.53;101575.28;5059952;28;20430;-71
2022/08/23 07:41:59;;;;;;;31.88;30.27;;;;;;;25.86;66.66;101584.28;5076667;28;20052;-71
2022/08/23 07:44:24;;;;;;;30.23;28.67;;;;;;;25.85;65.33;101577.25;5074691;28;20028;-71
2022/08/23 07:46:50;;;;;;;32.55;30.95;;;;;;;26.32;63.86;101583.72;5072383;28;20388;-71
2022/08/23 07:49:15;;;;;;;29.70;28.45;;;;;;;26.76;63.49;101581.41;5081636;28;20150;-71
2022/08/23 07:51:45;;;;;;;30.05;28.75;;;;;;;26.91;62.34;101579.00;5074318;28;20522;-71
2022/08/23 07:54:11;;;;;;;;;;;;;;;26.46;62.28;101596.78;5080828;28;20115;-71
2022/08/23 07:56:37;;;;;;;30.42;28.98;;;;;;;26.33;63.27;101597.03;5075187;28;19996;-70
2022/08/23 07:59:06;;;;;;;29.45;28.15;;;;;;;26.99;62.58;101596.78;5070354;28;20051;-72
2022/08/23 08:01:32;;;;;;;30.23;29.02;;;;;;;27.46;60.76;101602.81;5073831;28;20082;-72
2022/08/23 08:04:00;;;;;;;34.67;33.10;;;;;;;26.99;58.84;101605.72;5075035;28;20028;-70
2022/08/23 08:06:42;;;;;;;34.35;32.65;;;;;;;26.63;60.91;101604.16;5080650;28;20457;-70
2022/08/23 08:09:09;;;;;;;33.03;31.23;;;;;;;26.74;60.70;101610.63;5067483;28;20101;-72
2022/08/23 08:11:35;;;;;;;30.23;28.88;;;;;;;26.81;60.20;101595.91;5077592;28;20035;-72
2022/08/23 08:14:04;;;;;;;30.92;29.30;;;;;;;27.54;60.14;101598.06;5077879;28;20028;-71
2022/08/23 08:16:36;;;;;;;33.45;32.00;;;;;;;28.55;57.32;101608.00;5084283;28;20111;-71
2022/08/23 08:19:04;;;;;;;33.33;31.63;;;;;;;28.40;56.93;101608.63;5073515;28;20600;-72
2022/08/23 08:21:29;;;;;;;37.47;35.85;;;;;;;27.67;57.09;101614.00;5074957;28;20498;-71
2022/08/23 08:23:57;;;;;;;31.17;29.55;;;;;;;28.02;57.67;101596.69;5069673;28;20021;-71
2022/08/23 08:26:23;;;;;;;32.47;30.95;;;;;;;29.09;56.04;101619.84;5074272;28;20046;-71
2022/08/23 08:28:50;;;;;;;31.70;30.23;;;;;;;28.54;56.46;101617.25;5072738;28;20067;-71
2022/08/23 08:31:17;;;;;;;30.88;29.38;;;;;;;28.87;54.28;101613.56;5073485;28;20028;-71
2022/08/23 08:33:43;;;;;;;30.25;28.85;;;;;;;29.28;54.89;101603.97;5081975;28;20029;-71
2022/08/23 08:36:32;;;;;;;30.60;29.27;;;;;;;29.42;53.38;101601.69;5068968;28;20032;-71
2022/08/23 08:38:57;;;;;;;30.55;29.20;;;;;;;30.18;52.95;101605.25;5069578;28;20043;-71
2022/08/23 08:41:49;;;;;;;34.53;32.90;;;;;;;30.83;51.96;101600.38;5075028;28;20024;-71
2022/08/23 08:44:33;;;;;;;33.70;31.80;;;;;;;30.99;52.10;101610.28;5067955;28;20033;-71
2022/08/23 08:46:59;;;;;;;35.33;33.58;;;;;;;31.75;50.04;101601.38;5073154;28;20027;-71
2022/08/23 08:50:10;;;;;;;37.47;35.60;;;;;;;31.60;49.71;101603.25;5076204;28;20029;-71
2022/08/23 08:52:41;;;;;;;36.80;35.17;;;;;;;31.97;48.41;101601.09;5011325;28;20037;-70
2022/08/23 08:55:12;;;;;;;36.60;35.00;;;;;;;31.56;49.79;101606.56;5009243;28;20034;-70
2022/08/23 08:57:45;;;;;;;34.10;32.42;;;;;;;31.11;51.27;101605.38;5012479;28;20033;-70
2022/08/23 09:00:24;;;;;;;36.13;34.40;;;;;;;30.40;51.73;101599.66;5005431;28;20042;-71
2022/08/23 09:02:50;;;;;;;36.42;34.95;;;;;;;31.39;50.61;101602.44;5015519;28;20046;-70
2022/08/23 09:05:25;;;;;;;34.58;32.88;;;;;;;31.21;51.18;101592.88;5010924;28;20179;-70
2022/08/23 09:08:05;;;;;;;33.65;32.13;;;;;;;31.16;50.63;101607.28;5010805;28;20111;-71
2022/08/23 09:10:47;;;;;;;38.50;36.80;;;;;;;30.24;52.52;101596.84;5008161;28;20123;-71
2022/08/23 09:13:37;;;;;;;50.70;48.55;;;;;;;30.11;53.30;101608.19;5016206;28;20054;-70
2022/08/23 09:16:39;;;;;;;45.88;43.92;;;;;;;30.01;53.55;101608.13;5008944;28;20068;-70
2022/08/23 09:19:05;;;;;;;48.75;46.45;;;;;;;30.16;53.12;101589.19;5015251;28;20033;-72
2022/08/23 09:21:46;;;;;;;37.78;36.28;;;;;;;30.96;51.74;101602.63;4992790;28;20544;-70
2022/08/23 09:24:12;;;;;;;33.08;31.58;;;;;;;31.92;50.37;101603.81;5010323;28;20379;-70
2022/08/23 09:26:38;;;;;;;33.72;32.33;;;;;;;32.23;49.25;101606.50;5043854;28;20079;-70
2022/08/23 09:29:12;;;;;;;33.95;32.42;;;;;;;33.14;48.86;101606.38;5070861;28;20081;-70
2022/08/23 09:31:49;;;;;;;35.67;34.00;;;;;;;33.16;45.71;101606.91;5078980;28;20415;-70
2022/08/23 09:34:21;;;;;;;34.30;32.80;;;;;;;32.90;47.11;101593.34;5064101;28;20083;-70
2022/08/23 09:36:47;;;;;;;37.70;36.08;;;;;;;33.37;47.01;101610.31;5079384;28;20496;-70
2022/08/23 09:39:31;;;;;;;40.92;39.22;;;;;;;33.78;44.78;101599.03;5074315;28;20158;-71
2022/08/23 09:41:58;;;;;;;46.45;44.55;;;;;;;33.54;46.41;101602.50;5069690;28;20024;-72
2022/08/23 09:44:44;;;;;;;41.25;39.35;;;;;;;33.94;44.24;101600.50;5084327;28;20020;-71
2022/08/23 09:47:13;;;;;;;46.22;44.22;;;;;;;34.11;45.01;101588.28;5073009;28;20040;-71
2022/08/23 09:49:40;;;;;;;44.63;42.63;;;;;;;33.44;45.24;101605.31;5077368;28;20506;-71
2022/08/23 09:52:32;;;;;;;46.25;44.20;;;;;;;33.85;45.33;101602.25;5071386;28;20025;-71
2022/08/23 09:55:08;;;;;;;44.20;42.17;;;;;;;35.53;42.62;101597.59;5074349;28;20029;-71
2022/08/23 09:57:34;;;;;;;47.92;45.85;;;;;;;34.60;42.71;101587.16;5070146;28;20042;-71
2022/08/23 10:00:29;;;;;;;45.42;43.45;;;;;;;35.18;42.93;101586.91;5078924;28;20107;-71
2022/08/23 10:03:27;;;;;;;48.22;46.20;;;;;;;34.71;43.20;101583.22;5068216;28;20051;-71
2022/08/23 10:05:59;;;;;;;42.83;41.08;;;;;;;33.77;44.21;101576.31;5072523;28;20024;-71
2022/08/23 10:08:37;;;;;;;47.25;45.30;;;;;;;34.07;45.09;101562.59;5073886;28;20054;-71
2022/08/23 10:11:12;;;;;;;44.72;42.90;;;;;;;35.77;42.34;101579.06;5068236;28;20021;-71
2022/08/23 10:13:40;;;;;;;44.53;42.72;;;;;;;35.23;40.84;101578.63;5063851;28;20111;-71
2022/08/23 10:16:45;;;;;;;46.67;44.60;;;;;;;34.26;41.65;101570.91;5073559;28;20048;-71
2022/08/23 10:19:18;;;;;;;44.65;42.78;;;;;;;34.29;42.63;101573.84;5056285;28;20048;-71
2022/08/23 10:22:02;;;;;;;47.25;45.35;;;;;;;34.91;42.24;101570.28;5070279;28;20024;-71
2022/08/23 10:24:53;;;;;;;47.33;45.13;;;;;;;34.73;41.66;101559.03;5070245;28;20024;-71
2022/08/23 10:31:06;;;;;;;44.83;43.00;;;;;;;33.39;43.74;101564.34;5068991;28;20062;-71
2022/08/23 10:33:45;;;;;;;47.67;45.72;;;;;;;33.91;42.83;101560.03;5069451;28;20036;-71
2022/08/23 10:36:22;;;;;;;46.65;44.70;;;;;;;32.54;43.66;101565.44;5071983;28;20052;-71
2022/08/23 10:39:03;;;;;;;45.10;43.25;;;;;;;32.95;44.07;101559.72;5079298;28;20396;-71
2022/08/23 10:42:05;;;;;;;48.58;46.60;;;;;;;32.32;43.13;101563.84;5069865;28;20083;-71
2022/08/23 10:44:42;;;;;;;47.28;45.42;;;;;;;32.25;44.90;101563.34;5087101;28;20024;-71
2022/08/23 10:47:43;;;;;;;48.15;46.17;;;;;;;32.62;46.02;101564.84;5075863;28;20035;-71
2022/08/23 10:50:19;;;;;;;47.45;45.55;;;;;;;33.24;45.91;101561.72;5079238;28;20059;-71
2022/08/23 10:52:56;;;;;;;46.25;44.03;;;;;;;33.82;44.85;101556.31;5077022;28;20019;-71
2022/08/23 10:55:34;;;;;;;42.75;40.78;;;;;;;34.50;41.21;101559.91;5073523;28;20032;-71
2022/08/23 10:58:04;;;;;;;50.10;48.10;;;;;;;34.66;41.64;101547.63;5078223;28;20017;-71
2022/08/23 11:00:31;;;;;;;46.75;44.65;;;;;;;34.14;41.92;101563.06;5077732;28;20467;-71
2022/08/23 11:03:18;;;;;;;47.35;45.45;;;;;;;33.51;42.72;101559.28;5077014;28;20541;-71
2022/08/23 11:06:22;;;;;;;49.35;47.35;;;;;;;33.48;44.20;101557.13;5061356;28;20029;-71
2022/08/23 11:08:47;;;;;;;50.75;48.40;;;;;;;34.09;43.28;101560.38;5076176;28;20485;-71
2022/08/23 11:12:10;;;;;;;47.30;45.17;;;;;;;33.16;44.93;101558.47;5077869;28;20115;-71
2022/08/23 11:14:41;;;;;;;50.53;48.42;;;;;;;33.80;42.56;101564.00;5028528;28;20556;-71
2022/08/23 11:17:11;;;;;;;51.90;49.60;;;;;;;33.45;43.40;101554.97;5027328;28;20037;-71
2022/08/23 11:19:47;;;;;;;;;;;;;;;33.01;42.60;101558.56;5027865;28;20052;-71
2022/08/23 11:22:16;;;;;;;55.42;53.08;;;;;;;33.17;43.41;101560.13;5023633;28;19917;-71
2022/08/23 11:25:22;;;;;;;52.88;50.58;;;;;;;33.85;43.04;101554.91;5021283;28;20482;-71
2022/08/23 11:27:48;;;;;;;49.80;47.80;;;;;;;34.79;42.50;101555.13;5025334;28;20171;-71
2022/08/23 11:30:31;;;;;;;50.28;47.97;;;;;;;34.34;40.47;101560.09;5027332;28;20026;-71
2022/08/23 11:33:32;;;;;;;52.72;50.60;;;;;;;34.69;41.52;101562.66;5027002;28;20080;-71